首页
METAR-TAF:

METAR-TAF

机场 :

史汀森市立機場

圣安东尼奥, 得克萨斯州, 美国

纬度: 29-20-20N, 经度: 098-28-18W, 海拔: 175米

当前天气观测

该预报发布于1小时和3分钟前的14:53 UTC
风速3节,风向多变
温度 30°C
湿度 70%
气压 1015 hPa
能見度: 16.1公里
散云层高于2100英尺
多云层高于3600英尺

METAR: KSSF 241453Z VRB03KT 10SM SCT021 BKN036 30/24 A2997 RMK AO2 SLP134 T03000239 51006

时间: 10:56 (15:56 UTC)

预报

该预报发布于4小时和16分钟前的11:40 UTC
预报有效从24日的 12点(UTC)到 25日的 12点(UTC)
风速3节,风向东转东南
能見度: 10公里
散云层高于2000英尺
从 24日的 1500点(UTC)
风速8节,风向东南
能見度: 10公里
散云层高于4000英尺
从 25日的 0900点(UTC)
风速3节,风向东南
能見度: 10公里
多云层高于1200英尺

TAF: KSSF 241140Z 2412/2512 12003KT P6SM SCT020 FM241500 13008KT P6SM SCT040 FM250900 14003KT P6SM BKN012

超过4000个机场的气象观测和天气预报(METAR&TAF报告)。

可查询的气象台以黄色和红色小点在地图上表示。

将鼠标移到小点上方,可查看气象台名称。

然后点击查看天气观测和预报。

如需切换地图:点击带黑十字的绿色按钮放大地图;点击带横线的绿色按钮缩小地图;或者点击绿色箭头查看邻近地区的地图。


METAR-TAF: